Time;durP1;ratioP1;P1;durP2;ratioP2;P2;SDS_P1;SDS_P2;PMS_P1;PMS_P2;Temp;Humidity;BMP_temperature;BMP_pressure;BME280_temperature;BME280_humidity;BME280_pressure;Samples;Min_cycle;Max_cycle;Signal;HPM_P1;HPM_P2
2022/11/13 00:00:03;;;;;;;;;;;;;;;17.44;48.18;102473.16;5059085;28;1112;-50
2022/11/13 00:02:47;;;;;;;;;;;;;;;16.75;48.32;102478.25;5058929;28;1072;-52
2022/11/13 00:05:31;;;;;;;;;;;;;;;18.36;48.61;102473.56;5058919;28;1123;-54
2022/11/13 00:08:15;;;;;;;;;;;;;;;17.51;49.82;102467.56;5058673;28;823;-55
2022/11/13 00:11:06;;;;;;;;;;;;;;;17.04;48.89;102479.34;5058662;28;1917;-54
2022/11/13 00:13:50;;;;;;;;;;;;;;;17.81;49.64;102477.59;5058554;28;1099;-55
2022/11/13 00:16:34;;;;;;;;;;;;;;;17.10;49.38;102466.56;5044735;28;1053;-56
2022/11/13 00:19:18;;;;;;;;;;;;;;;16.91;48.16;102474.03;5058287;28;1103;-54
2022/11/13 00:22:02;;;;;;;;;;;;;;;16.88;48.42;102456.09;5058728;28;1131;-54
2022/11/13 00:24:45;;;;;;;;;;;;;;;17.35;49.35;102466.34;5058443;28;1127;-50
2022/11/13 00:27:30;;;;;;;;;;;;;;;16.86;48.67;102451.91;5058761;28;1128;-53
2022/11/13 00:30:14;;;;;;;;;;;;;;;16.66;47.91;102464.00;5058537;28;1902;-51
2022/11/13 00:32:58;;;;;;;;;;;;;;;16.58;47.89;102445.94;5058065;28;935;-45
2022/11/13 00:35:42;;;;;;;;;;;;;;;17.79;48.81;102453.09;5058308;28;1092;-52
2022/11/13 00:38:26;;;;;;;;;;;;;;;16.92;49.21;102453.72;5043433;28;1081;-53
2022/11/13 00:41:10;;;;;;;;;;;;;;;18.46;48.61;102451.72;5058314;28;1167;-50
2022/11/13 00:43:54;;;;;;;;;;;;;;;17.29;49.70;102453.53;5057770;28;1116;-51
2022/11/13 00:46:37;;;;;;;;;;;;;;;16.93;48.92;102450.75;5058300;28;1183;-54
2022/11/13 00:49:21;;;;;;;;;;;;;;;16.67;47.97;102457.44;5044265;28;931;-50
2022/11/13 00:52:06;;;;;;;;;;;;;;;17.42;48.90;102456.06;5057781;28;1906;-49
2022/11/13 00:54:50;;;;;;;;;;;;;;;16.98;48.90;102452.78;5058122;28;1176;-48
2022/11/13 00:57:34;;;;;;;;;;;;;;;16.95;48.95;102447.75;5055523;28;1086;-50
2022/11/13 01:00:18;;;;;;;;;;;;;;;17.25;49.29;102449.59;5057738;28;1155;-54
2022/11/13 01:03:01;;;;;;;;;;;;;;;16.79;48.37;102448.38;5057860;28;1053;-52
2022/11/13 01:05:45;;;;;;;;;;;;;;;16.68;47.42;102431.66;5056555;28;1171;-51
2022/11/13 01:08:29;;;;;;;;;;;;;;;16.90;49.01;102440.22;5057827;28;925;-50
2022/11/13 01:11:14;;;;;;;;;;;;;;;16.71;48.01;102446.81;5057673;28;1910;-51
2022/11/13 01:13:58;;;;;;;;;;;;;;;17.29;48.32;102439.78;5057667;28;1116;-48
2022/11/13 01:16:42;;;;;;;;;;;;;;;16.87;48.42;102437.06;5055563;28;1259;-54
2022/11/13 01:19:26;;;;;;;;;;;;;;;16.58;47.76;102445.13;5052930;28;1152;-54
2022/11/13 01:22:10;;;;;;;;;;;;;;;16.42;46.81;102447.44;5057444;28;1009;-54
2022/11/13 01:24:53;;;;;;;;;;;;;;;17.22;48.37;102447.31;5057500;28;1124;-55
2022/11/13 01:27:37;;;;;;;;;;;;;;;16.62;48.31;102438.09;5057080;28;1168;-54
2022/11/13 01:30:21;;;;;;;;;;;;;;;16.82;48.49;102442.44;5045254;28;1901;-48
2022/11/13 01:33:05;;;;;;;;;;;;;;;17.14;48.91;102447.66;5057178;28;1010;-52
2022/11/13 01:35:49;;;;;;;;;;;;;;;17.03;48.91;102439.19;5057239;28;1076;-52
2022/11/13 01:38:33;;;;;;;;;;;;;;;17.90;48.59;102448.63;5057018;28;1068;-53
2022/11/13 01:41:18;;;;;;;;;;;;;;;17.01;49.22;102441.34;5057165;28;1124;-52
2022/11/13 01:44:02;;;;;;;;;;;;;;;17.57;49.28;102441.00;5056700;28;1211;-55
2022/11/13 01:46:46;;;;;;;;;;;;;;;17.07;49.16;102434.06;5056968;28;1033;-51
2022/11/13 01:49:32;;;;;;;;;;;;;;;16.77;48.10;102424.75;5044275;28;1021;-55
2022/11/13 01:52:30;;;;;;;;;;;;;;;17.58;48.58;102429.75;5056763;28;1242;-51
2022/11/13 01:55:14;;;;;;;;;;;;;;;16.88;48.87;102425.00;5056981;28;1171;-52
2022/11/13 01:57:59;;;;;;;;;;;;;;;18.18;48.39;102426.94;5043863;28;1002;-49
2022/11/13 02:00:43;;;;;;;;;;;;;;;17.36;49.55;102429.53;5056546;28;1124;-48
2022/11/13 02:03:27;;;;;;;;;;;;;;;16.92;48.73;102426.25;5056725;28;1207;-51
2022/11/13 02:06:10;;;;;;;;;;;;;;;17.52;49.18;102427.97;5056452;28;1286;-50
2022/11/13 02:08:54;;;;;;;;;;;;;;;16.91;48.93;102425.41;5041664;28;1223;-51
2022/11/13 02:11:38;;;;;;;;;;;;;;;17.02;48.98;102426.50;5044041;28;1914;-54
2022/11/13 02:14:23;;;;;;;;;;;;;;;17.04;49.19;102427.13;5056455;28;1195;-54
2022/11/13 02:17:07;;;;;;;;;;;;;;;16.75;48.46;102437.88;5041095;28;1121;-52
2022/11/13 02:19:52;;;;;;;;;;;;;;;16.50;47.40;102429.78;5055917;28;1247;-54
2022/11/13 02:22:37;;;;;;;;;;;;;;;17.33;48.22;102427.25;5057000;28;1144;-52
2022/11/13 02:25:21;;;;;;;;;;;;;;;16.71;48.28;102424.84;5044961;28;982;-53
2022/11/13 02:28:05;;;;;;;;;;;;;;;16.53;47.62;102428.50;5041209;28;1238;-53
2022/11/13 02:30:49;;;;;;;;;;;;;;;16.42;47.01;102433.72;5056212;28;1897;-53
2022/11/13 02:33:33;;;;;;;;;;;;;;;17.31;47.44;102429.41;5051430;28;914;-49
2022/11/13 02:36:17;;;;;;;;;;;;;;;16.62;48.04;102426.25;5055961;28;1085;-50
2022/11/13 02:39:02;;;;;;;;;;;;;;;16.43;47.29;102437.28;5040975;28;1149;-54
2022/11/13 02:41:46;;;;;;;;;;;;;;;17.71;48.07;102434.19;5041064;28;1120;-50
2022/11/13 02:44:30;;;;;;;;;;;;;;;16.74;48.93;102435.38;5044071;28;994;-51
2022/11/13 02:47:14;;;;;;;;;;;;;;;18.45;48.16;102436.31;5056006;28;1120;-48
2022/11/13 02:49:58;;;;;;;;;;;;;;;17.31;49.44;102442.34;5055884;28;1985;-52
2022/11/13 02:52:42;;;;;;;;;;;;;;;16.89;48.74;102440.47;5055901;28;1214;-55
2022/11/13 02:55:26;;;;;;;;;;;;;;;16.79;48.12;102440.16;5055955;28;1207;-48
2022/11/13 02:58:10;;;;;;;;;;;;;;;17.03;49.35;102441.09;5055447;28;883;-53
2022/11/13 03:00:54;;;;;;;;;;;;;;;18.44;48.29;102425.53;5055704;28;1134;-50
2022/11/13 03:03:38;;;;;;;;;;;;;;;18.56;48.57;102433.75;5056105;28;1136;-49
2022/11/13 03:06:22;;;;;;;;;;;;;;;17.52;49.88;102436.22;5042566;28;1041;-50
2022/11/13 03:09:06;;;;;;;;;;;;;;;17.18;48.61;102444.22;5055295;28;1075;-50
2022/11/13 03:11:49;;;;;;;;;;;;;;;16.92;47.67;102450.97;5055578;28;1910;-50
2022/11/13 03:14:33;;;;;;;;;;;;;;;16.86;47.82;102438.16;5055590;28;1143;-56
2022/11/13 03:17:17;;;;;;;;;;;;;;;17.53;49.36;102448.06;5055810;28;1108;-55
2022/11/13 03:20:01;;;;;;;;;;;;;;;16.97;49.09;102451.13;5042426;28;1082;-52
2022/11/13 03:22:45;;;;;;;;;;;;;;;16.80;47.55;102444.56;5050744;28;1005;-52
2022/11/13 03:25:29;;;;;;;;;;;;;;;16.71;47.08;102442.16;5055685;28;1017;-52
2022/11/13 03:28:13;;;;;;;;;;;;;;;16.49;46.59;102450.06;5055722;28;1143;-50
2022/11/13 03:30:56;;;;;;;;;;;;;;;17.27;47.87;102458.44;5059273;28;1894;-50
2022/11/13 03:33:41;;;;;;;;;;;;;;;16.83;48.75;102446.84;5051743;28;886;-51
2022/11/13 03:36:24;;;;;;;;;;;;;;;17.22;48.73;102447.31;5059724;28;1128;-51
2022/11/13 03:39:08;;;;;;;;;;;;;;;17.44;49.58;102456.66;5059412;28;1160;-51
2022/11/13 03:41:52;;;;;;;;;;;;;;;16.88;48.80;102450.59;5059211;28;1125;-52
2022/11/13 03:44:36;;;;;;;;;;;;;;;16.71;47.81;102450.41;5059109;28;1108;-51
2022/11/13 03:47:20;;;;;;;;;;;;;;;17.68;48.92;102448.41;5059132;28;1104;-50
2022/11/13 03:50:04;;;;;;;;;;;;;;;16.86;48.94;102427.16;5059155;28;1971;-53
2022/11/13 03:52:48;;;;;;;;;;;;;;;18.32;48.57;102441.28;5045736;28;942;-56
2022/11/13 03:55:32;;;;;;;;;;;;;;;17.23;49.53;102436.09;5059124;28;1172;-51
2022/11/13 03:58:16;;;;;;;;;;;;;;;17.01;48.32;102437.72;5058753;28;970;-52
2022/11/13 04:01:00;;;;;;;;;;;;;;;17.59;49.26;102436.94;5056056;28;1281;-49
2022/11/13 04:03:44;;;;;;;;;;;;;;;16.99;48.67;102432.47;5047480;28;1029;-51
2022/11/13 04:06:28;;;;;;;;;;;;;;;17.65;48.98;102442.56;5058903;28;1089;-50
2022/11/13 04:09:13;;;;;;;;;;;;;;;17.21;49.37;102432.75;5052568;28;998;-52
2022/11/13 04:11:56;;;;;;;;;;;;;;;16.86;48.63;102438.16;5059093;28;1981;-50
2022/11/13 04:14:41;;;;;;;;;;;;;;;18.00;48.71;102437.03;5058591;28;1084;-49
2022/11/13 04:17:24;;;;;;;;;;;;;;;17.02;49.44;102440.25;5058677;28;1179;-49
2022/11/13 04:20:08;;;;;;;;;;;;;;;16.96;49.15;102438.44;5058639;28;1112;-49
2022/11/13 04:22:55;;;;;;;;;;;;;;;17.37;49.35;102431.19;5058225;28;887;-49
2022/11/13 04:25:39;;;;;;;;;;;;;;;16.85;48.71;102422.75;5059011;28;998;-49
2022/11/13 04:28:23;;;;;;;;;;;;;;;16.70;47.41;102434.16;5058496;28;1143;-51
2022/11/13 04:31:07;;;;;;;;;;;;;;;17.28;49.03;102440.88;5058405;28;1898;-49
2022/11/13 04:33:51;;;;;;;;;;;;;;;16.86;48.26;102429.91;5058488;28;1159;-50
2022/11/13 04:36:35;;;;;;;;;;;;;;;17.13;49.07;102438.59;5058337;28;1166;-49
2022/11/13 04:39:19;;;;;;;;;;;;;;;16.94;49.05;102451.56;5045657;28;959;-49
2022/11/13 04:45:05;;;;;;;;;;;;;;;17.20;49.01;102454.97;5057918;28;1065;-50
2022/11/13 04:47:49;;;;;;;;;;;;;;;16.66;48.24;102428.31;5045294;28;1027;-54
2022/11/13 04:50:33;;;;;;;;;;;;;;;17.34;48.31;102439.94;5057857;28;1937;-48
2022/11/13 04:53:17;;;;;;;;;;;;;;;16.80;48.66;102441.84;5057701;28;1140;-49
2022/11/13 04:56:01;;;;;;;;;;;;;;;16.57;47.85;102446.19;5056771;28;1429;-49
2022/11/13 04:58:45;;;;;;;;;;;;;;;17.28;48.41;102449.13;5053373;28;2285;-50
2022/11/13 05:01:29;;;;;;;;;;;;;;;16.72;48.83;102449.34;5049681;28;2054;-45
2022/11/13 05:04:13;;;;;;;;;;;;;;;18.50;47.90;102441.06;5054170;28;2075;-47
2022/11/13 05:06:57;;;;;;;;;;;;;;;17.18;49.39;102441.47;5057113;28;2138;-42
2022/11/13 05:09:41;;;;;;;;;;;;;;;17.69;49.53;102447.34;5056782;28;2068;-46
2022/11/13 05:12:25;;;;;;;;;;;;;;;17.45;49.43;102450.09;5057192;28;1928;-49
2022/11/13 05:15:09;;;;;;;;;;;;;;;17.05;48.61;102452.69;5045816;28;1006;-46
2022/11/13 05:17:53;;;;;;;;;;;;;;;17.74;48.88;102449.34;5057163;28;1127;-49
2022/11/13 05:20:37;;;;;;;;;;;;;;;16.97;48.92;102442.88;5057147;28;1104;-46
2022/11/13 05:23:21;;;;;;;;;;;;;;;17.02;48.79;102448.47;5056507;28;871;-49
2022/11/13 05:26:09;;;;;;;;;;;;;;;17.53;49.30;102457.16;5057076;28;1135;-51
2022/11/13 05:28:55;;;;;;;;;;;;;;;16.96;48.82;102449.44;5057114;28;1080;-50
2022/11/13 05:31:39;;;;;;;;;;;;;;;17.72;48.92;102451.53;5056758;28;1960;-52
2022/11/13 05:34:23;;;;;;;;;;;;;;;16.91;49.28;102450.16;5056629;28;1104;-51
2022/11/13 05:37:07;;;;;;;;;;;;;;;17.26;49.39;102456.78;5044618;28;986;-52
2022/11/13 05:39:51;;;;;;;;;;;;;;;16.96;49.20;102452.19;5056876;28;1187;-49
2022/11/13 05:42:35;;;;;;;;;;;;;;;16.68;48.40;102456.38;5051288;28;2580;-53
2022/11/13 05:45:19;;;;;;;;;;;;;;;17.26;48.41;102454.88;5056474;28;1112;-55
2022/11/13 05:48:03;;;;;;;;;;;;;;;17.00;49.25;102461.63;5056708;28;1191;-50
2022/11/13 05:50:47;;;;;;;;;;;;;;;18.36;48.11;102462.56;5056351;28;1967;-50
2022/11/13 05:53:32;;;;;;;;;;;;;;;18.03;48.98;102474.25;5056381;28;1239;-53
2022/11/13 05:56:16;;;;;;;;;;;;;;;17.17;49.21;102477.44;5056879;28;946;-51
2022/11/13 05:59:00;;;;;;;;;;;;;;;17.42;49.37;102480.00;5056151;28;1151;-49
2022/11/13 06:01:44;;;;;;;;;;;;;;;17.20;49.66;102485.22;5056062;28;1210;-49
2022/11/13 06:04:28;;;;;;;;;;;;;;;17.15;48.87;102493.31;5056567;28;1072;-49
2022/11/13 06:07:12;;;;;;;;;;;;;;;17.62;49.62;102485.13;5056283;28;1072;-51
2022/11/13 06:09:56;;;;;;;;;;;;;;;17.02;49.02;102486.13;5043520;28;1973;-51
2022/11/13 06:12:40;;;;;;;;;;;;;;;17.64;49.16;102496.72;5056040;28;1867;-53
2022/11/13 06:15:23;;;;;;;;;;;;;;;17.12;49.15;102480.06;5056237;28;1100;-52
2022/11/13 06:18:08;;;;;;;;;;;;;;;16.83;48.13;102482.56;5056039;28;1131;-53
2022/11/13 06:20:51;;;;;;;;;;;;;;;16.69;47.05;102482.78;5056238;28;1096;-55
2022/11/13 06:23:36;;;;;;;;;;;;;;;17.47;48.42;102488.34;5053463;28;942;-53
2022/11/13 06:26:21;;;;;;;;;;;;;;;17.26;49.12;102487.00;5055963;28;1270;-55
2022/11/13 06:29:05;;;;;;;;;;;;;;;16.81;48.30;102481.97;5055976;28;1124;-52
2022/11/13 06:31:49;;;;;;;;;;;;;;;17.81;48.44;102474.00;5055863;28;1977;-52
2022/11/13 06:34:33;;;;;;;;;;;;;;;18.01;48.52;102482.75;5055395;28;1052;-51
2022/11/13 06:37:17;;;;;;;;;;;;;;;17.22;50.36;102485.81;5055890;28;1230;-47
2022/11/13 06:40:01;;;;;;;;;;;;;;;16.95;51.07;102486.22;5049073;28;1042;-51
2022/11/13 06:42:44;;;;;;;;;;;;;;;16.68;51.68;102486.59;5053980;28;2506;-52
2022/11/13 06:45:28;;;;;;;;;;;;;;;16.55;51.84;102470.28;5055720;28;1176;-47
2022/11/13 06:48:12;;;;;;;;;;;;;;;16.40;52.39;102474.28;5046269;28;986;-49
2022/11/13 06:50:59;;;;;;;;;;;;;;;16.24;52.41;102473.00;5055426;28;1918;-50
2022/11/13 06:53:43;;;;;;;;;;;;;;;16.12;53.02;102482.22;5055635;28;1186;-51
2022/11/13 06:56:27;;;;;;;;;;;;;;;16.04;52.94;102473.22;5043989;28;994;-52
2022/11/13 06:59:11;;;;;;;;;;;;;;;15.91;53.25;102470.63;5055174;28;1132;-52
2022/11/13 07:01:55;;;;;;;;;;;;;;;15.84;53.35;102470.69;5055333;28;1124;-51
2022/11/13 07:04:38;;;;;;;;;;;;;;;16.33;52.56;102462.53;5059662;28;1239;-52
2022/11/13 07:07:22;;;;;;;;;;;;;;;17.12;50.45;102460.81;5059556;28;1132;-53
2022/11/13 07:10:07;;;;;;;;;;;;;;;16.34;52.52;102455.13;5059476;28;1905;-53
2022/11/13 07:12:51;;;;;;;;;;;;;;;16.10;53.20;102456.91;5069815;28;1862;-55
2022/11/13 07:15:35;;;;;;;;;;;;;;;15.89;53.26;102446.19;5059550;28;1147;-51
2022/11/13 07:18:21;;;;;;;;;;;;;;;16.18;53.18;102449.19;5059461;28;1068;-52
2022/11/13 07:21:06;;;;;;;;;;;;;;;17.19;50.15;102450.56;5059712;28;1156;-54
2022/11/13 07:23:50;;;;;;;;;;;;;;;16.33;52.39;102448.00;5059113;28;919;-54
2022/11/13 07:26:34;;;;;;;;;;;;;;;16.08;53.11;102448.91;5059367;28;1136;-51
2022/11/13 07:29:17;;;;;;;;;;;;;;;15.89;53.32;102446.19;5059402;28;1111;-50
2022/11/13 07:32:01;;;;;;;;;;;;;;;16.26;52.86;102442.56;5046374;28;1975;-49
2022/11/13 07:34:45;;;;;;;;;;;;;;;17.39;49.61;102448.31;5058778;28;1160;-51
2022/11/13 07:37:29;;;;;;;;;;;;;;;16.48;52.24;102453.91;5059030;28;1100;-48
2022/11/13 07:40:13;;;;;;;;;;;;;;;16.11;53.12;102439.38;5059021;28;1222;-50
2022/11/13 07:42:58;;;;;;;;;;;;;;;15.98;53.28;102435.72;5064051;28;2494;-50
2022/11/13 07:45:42;;;;;;;;;;;;;;;15.80;53.61;102444.78;5058985;28;1218;-52
2022/11/13 07:48:26;;;;;;;;;;;;;;;16.86;51.58;102433.50;5058535;28;859;-51
2022/11/13 07:51:10;;;;;;;;;;;;;;;16.83;51.39;102444.09;5045773;28;1914;-52
2022/11/13 07:53:54;;;;;;;;;;;;;;;16.18;52.77;102427.25;5058630;28;1150;-52
2022/11/13 07:56:38;;;;;;;;;;;;;;;16.13;53.22;102434.50;5058765;28;942;-53
2022/11/13 07:59:22;;;;;;;;;;;;;;;17.27;50.45;102439.22;5058339;28;1187;-51
2022/11/13 08:02:07;;;;;;;;;;;;;;;16.42;52.77;102444.69;5058824;28;1124;-55
2022/11/13 08:04:51;;;;;;;;;;;;;;;16.08;53.48;102437.94;5058663;28;970;-55
2022/11/13 08:07:35;;;;;;;;;;;;;;;15.95;53.79;102438.94;5058495;28;1076;-53
2022/11/13 08:10:19;;;;;;;;;;;;;;;17.47;50.09;102438.03;5058354;28;1969;-51
2022/11/13 08:13:04;;;;;;;;;;;;;;;16.42;52.66;102422.72;5047965;28;2228;-52
2022/11/13 08:15:48;;;;;;;;;;;;;;;16.20;53.09;102427.88;5057843;28;1088;-48
2022/11/13 08:18:32;;;;;;;;;;;;;;;16.00;53.72;102419.03;5047316;28;1405;-51
2022/11/13 08:21:16;;;;;;;;;;;;;;;16.15;53.33;102429.63;5058307;28;1168;-50
2022/11/13 08:24:00;;;;;;;;;;;;;;;17.10;50.92;102434.41;5058011;28;884;-50
2022/11/13 08:26:44;;;;;;;;;;;;;;;16.31;52.84;102419.91;5058368;28;1143;-52
2022/11/13 08:29:28;;;;;;;;;;;;;;;16.03;53.78;102427.66;5058140;28;1131;-50
2022/11/13 08:32:15;;;;;;;;;;;;;;;16.68;52.29;102419.84;5058504;28;1964;-46
2022/11/13 08:34:59;;;;;;;;;;;;;;;16.93;51.33;102423.25;5057708;28;1092;-51
2022/11/13 08:37:44;;;;;;;;;;;;;;;16.37;52.91;102419.00;5058292;28;1179;-56
2022/11/13 08:40:28;;;;;;;;;;;;;;;16.14;53.36;102409.56;5054875;28;955;-55
2022/11/13 08:43:12;;;;;;;;;;;;;;;15.98;53.80;102415.69;5063219;28;2493;-54
2022/11/13 08:45:56;;;;;;;;;;;;;;;17.24;50.82;102418.53;5058084;28;1239;-56
2022/11/13 08:48:40;;;;;;;;;;;;;;;16.62;52.10;102402.38;5057784;28;946;-53
2022/11/13 08:51:24;;;;;;;;;;;;;;;16.23;53.37;102412.84;5042709;28;1979;-56
2022/11/13 08:54:08;;;;;;;;;;;;;;;16.03;53.86;102408.44;5057680;28;1109;-52
2022/11/13 08:56:52;;;;;;;;;;;;;;;15.91;54.13;102404.78;5058096;28;1101;-53
2022/11/13 08:59:36;;;;;;;;;;;;;;;17.09;51.56;102407.97;5045199;28;799;-59
2022/11/13 09:02:19;;;;;;;;;;;;;;;16.88;51.62;102403.03;5057280;28;1140;-54
2022/11/13 09:05:04;;;;;;;;;;;;;;;16.36;52.90;102400.84;5057556;28;969;-51
2022/11/13 09:07:48;;;;;;;;;;;;;;;16.14;53.65;102403.25;5057449;28;1104;-53
2022/11/13 09:10:32;;;;;;;;;;;;;;;15.94;54.03;102392.53;5057302;28;1965;-54
2022/11/13 09:13:16;;;;;;;;;;;;;;;15.84;54.29;102385.66;5057351;28;2412;-52
2022/11/13 09:16:00;;;;;;;;;;;;;;;17.19;51.32;102384.56;5057165;28;1076;-49
2022/11/13 09:18:47;;;;;;;;;;;;;;;16.47;52.79;102375.34;5057234;28;1125;-55
2022/11/13 09:21:31;;;;;;;;;;;;;;;16.10;53.87;102378.16;5057079;28;1092;-54
2022/11/13 09:24:15;;;;;;;;;;;;;;;16.73;52.36;102373.25;5056860;28;1029;-52
2022/11/13 09:26:59;;;;;;;;;;;;;;;16.84;51.71;102368.84;5043757;28;951;-54
2022/11/13 09:29:43;;;;;;;;;;;;;;;16.35;53.35;102375.28;5059007;28;1072;-53
2022/11/13 09:32:27;;;;;;;;;;;;;;;16.09;53.97;102365.53;5066148;28;1964;-52
2022/11/13 09:35:11;;;;;;;;;;;;;;;17.02;51.94;102354.22;5056738;28;1211;-54
2022/11/13 09:37:54;;;;;;;;;;;;;;;17.01;51.67;102358.88;5056847;28;1136;-53
2022/11/13 09:40:44;;;;;;;;;;;;;;;16.43;53.02;102347.50;5055137;28;983;-55
2022/11/13 09:43:41;;;;;;;;;;;;;;;16.17;53.67;102339.66;5061925;28;2521;-54
2022/11/13 09:46:35;;;;;;;;;;;;;;;16.02;54.07;102334.56;5046719;28;1144;-56
2022/11/13 09:49:22;;;;;;;;;;;;;;;15.94;54.17;102338.50;5056239;28;1203;-55
2022/11/13 09:52:09;;;;;;;;;;;;;;;17.65;50.40;102329.78;5056366;28;1902;-58
2022/11/13 09:54:53;;;;;;;;;;;;;;;16.69;52.74;102334.44;5056615;28;1175;-55
2022/11/13 09:57:37;;;;;;;;;;;;;;;16.34;53.41;102321.47;5056289;28;1183;-55
2022/11/13 10:00:21;;;;;;;;;;;;;;;16.15;53.92;102320.69;5056000;28;1089;-59
2022/11/13 10:03:23;;;;;;;;;;;;;;;16.01;54.25;102322.78;5043471;28;1061;-54
2022/11/13 10:06:13;;;;;;;;;;;;;;;15.89;54.44;102313.66;5056353;28;1200;-55
2022/11/13 10:09:10;;;;;;;;;;;;;;;16.22;53.72;102309.63;5041611;28;1089;-54
2022/11/13 10:11:55;;;;;;;;;;;;;;;17.39;50.88;102312.72;5030692;28;1911;-56
2022/11/13 10:14:44;;;;;;;;;;;;;;;16.51;53.15;102309.78;5056129;28;1199;-50
2022/11/13 10:17:34;;;;;;;;;;;;;;;16.23;54.17;102317.63;5055891;28;1077;-52
2022/11/13 10:20:21;;;;;;;;;;;;;;;17.79;50.10;102307.25;5045035;28;1065;-56
2022/11/13 10:23:15;;;;;;;;;;;;;;;16.72;52.50;102298.25;5056037;28;1203;-57
2022/11/13 10:26:06;;;;;;;;;;;;;;;16.39;53.58;102307.84;5034733;28;932;-56
2022/11/13 10:28:55;;;;;;;;;;;;;;;16.79;52.82;102305.53;5045126;28;1210;-53
2022/11/13 10:31:47;;;;;;;;;;;;;;;17.21;51.18;102299.97;5040773;28;1967;-52
2022/11/13 10:34:32;;;;;;;;;;;;;;;16.57;53.13;102301.44;5055787;28;1139;-56
2022/11/13 10:37:26;;;;;;;;;;;;;;;16.33;53.87;102284.09;5055467;28;840;-57
2022/11/13 10:40:10;;;;;;;;;;;;;;;16.14;54.24;102290.72;5055658;28;1127;-56
2022/11/13 10:42:54;;;;;;;;;;;;;;;16.66;53.11;102280.00;5055611;28;2539;-53
2022/11/13 10:45:38;;;;;;;;;;;;;;;17.38;51.01;102283.56;5040579;28;1231;-58
2022/11/13 10:48:33;;;;;;;;;;;;;;;16.57;53.14;102275.91;5055422;28;1195;-56
2022/11/13 10:51:24;;;;;;;;;;;;;;;16.26;54.06;102283.38;5043580;28;1965;-56
2022/11/13 10:54:34;;;;;;;;;;;;;;;16.14;54.29;102287.97;5055886;28;1159;-55
2022/11/13 10:57:23;;;;;;;;;;;;;;;17.50;50.95;102278.88;5055496;28;1244;-56
2022/11/13 11:00:21;;;;;;;;;;;;;;;16.60;53.29;102280.94;5055279;28;1175;-53
2022/11/13 11:03:23;;;;;;;;;;;;;;;16.31;54.02;102272.50;5042567;28;951;-54
2022/11/13 11:06:07;;;;;;;;;;;;;;;16.35;53.84;102276.47;5055462;28;1286;-49
2022/11/13 11:08:51;;;;;;;;;;;;;;;17.49;51.00;102270.84;5040387;28;1077;-54
2022/11/13 11:14:40;;;;;;;;;;;;;;;16.29;53.97;102274.66;5053500;28;1033;-55
2022/11/13 11:17:36;;;;;;;;;;;;;;;16.16;54.27;102263.88;5040226;28;1148;-55
2022/11/13 11:20:23;;;;;;;;;;;;;;;17.62;50.83;102260.41;5029949;28;1062;-58
2022/11/13 11:23:07;;;;;;;;;;;;;;;16.73;53.36;102264.22;5055340;28;1104;-59
2022/11/13 11:26:10;;;;;;;;;;;;;;;16.62;53.83;102266.94;5055111;28;922;-57
2022/11/13 11:28:58;;;;;;;;;;;;;;;17.47;51.44;102262.03;5045079;28;1085;-54
2022/11/13 11:31:49;;;;;;;;;;;;;;;16.64;53.35;102260.16;5055174;28;1901;-55
2022/11/13 11:34:35;;;;;;;;;;;;;;;16.43;53.95;102256.06;5055508;28;1167;-59
2022/11/13 11:37:24;;;;;;;;;;;;;;;16.96;53.04;102257.09;5039631;28;871;-57
2022/11/13 11:40:11;;;;;;;;;;;;;;;17.38;51.51;102254.16;5055417;28;1266;-57
2022/11/13 11:42:59;;;;;;;;;;;;;;;16.64;53.36;102251.09;5054954;28;2656;-57
2022/11/13 11:45:44;;;;;;;;;;;;;;;16.39;54.09;102263.94;5055097;28;1104;-57
2022/11/13 11:48:29;;;;;;;;;;;;;;;16.38;54.34;102245.81;5054842;28;1235;-56
2022/11/13 11:51:24;;;;;;;;;;;;;;;17.73;50.49;102250.44;5045399;28;1890;-57
2022/11/13 11:54:25;;;;;;;;;;;;;;;16.70;53.07;102248.19;5058904;28;1297;-56
2022/11/13 11:57:12;;;;;;;;;;;;;;;16.50;53.96;102251.31;5043528;28;1160;-59
2022/11/13 12:00:12;;;;;;;;;;;;;;;17.56;51.20;102247.63;5058809;28;1147;-58
2022/11/13 12:02:59;;;;;;;;;;;;;;;16.69;53.30;102246.56;5058606;28;1228;-60
2022/11/13 12:05:49;;;;;;;;;;;;;;;16.45;53.76;102250.34;5058671;28;1167;-59
2022/11/13 12:08:41;;;;;;;;;;;;;;;17.44;51.49;102242.16;5058381;28;1073;-58
2022/11/13 12:11:32;;;;;;;;;;;;;;;17.01;52.59;102235.22;5041172;28;2351;-59
2022/11/13 12:14:22;;;;;;;;;;;;;;;16.56;53.51;102241.28;5055563;28;966;-57
2022/11/13 12:17:35;;;;;;;;;;;;;;;16.50;53.83;102236.75;5043784;28;1108;-57
2022/11/13 12:20:22;;;;;;;;;;;;;;;17.38;51.50;102240.41;5042184;28;1259;-58
2022/11/13 12:23:12;;;;;;;;;;;;;;;16.65;53.40;102248.09;5058446;28;1147;-58
2022/11/13 12:26:19;;;;;;;;;;;;;;;16.40;54.21;102235.41;5057984;28;889;-60
2022/11/13 12:29:12;;;;;;;;;;;;;;;16.85;53.34;102239.50;5048779;28;1407;-60
2022/11/13 12:32:15;;;;;;;;;;;;;;;17.36;51.56;102238.97;5058126;28;1965;-60
2022/11/13 12:35:01;;;;;;;;;;;;;;;16.67;53.58;102236.88;5058121;28;1210;-60
2022/11/13 12:37:45;;;;;;;;;;;;;;;16.42;54.29;102226.94;5057788;28;1163;-58
2022/11/13 12:40:29;;;;;;;;;;;;;;;16.18;54.67;102229.63;5058042;28;1005;-63
2022/11/13 12:43:23;;;;;;;;;;;;;;;17.58;51.36;102237.22;5057933;28;2714;-61
2022/11/13 12:46:07;;;;;;;;;;;;;;;16.74;53.28;102230.16;5045669;28;999;-60
2022/11/13 12:48:51;;;;;;;;;;;;;;;16.42;54.23;102236.03;5057456;28;1120;-59
2022/11/13 12:51:39;;;;;;;;;;;;;;;17.15;52.57;102230.28;5042703;28;1968;-56
2022/11/13 12:54:26;;;;;;;;;;;;;;;17.03;52.58;102229.50;5057741;28;1207;-60
2022/11/13 12:57:14;;;;;;;;;;;;;;;16.55;53.83;102245.09;5057728;28;1072;-58
2022/11/13 12:59:59;;;;;;;;;;;;;;;16.28;54.47;102229.06;5057591;28;1052;-57
2022/11/13 13:02:49;;;;;;;;;;;;;;;17.35;52.14;102240.03;5057004;28;1114;-57
2022/11/13 13:05:48;;;;;;;;;;;;;;;17.14;52.50;102236.03;5057507;28;1136;-57
2022/11/13 13:08:42;;;;;;;;;;;;;;;16.51;54.29;102233.75;5047437;28;1057;-56
2022/11/13 13:11:34;;;;;;;;;;;;;;;16.56;54.17;102230.28;5042317;28;2482;-58
2022/11/13 13:14:33;;;;;;;;;;;;;;;17.62;51.31;102221.91;5057332;28;1085;-56
2022/11/13 13:17:18;;;;;;;;;;;;;;;16.76;53.71;102232.72;5057441;28;1171;-58
2022/11/13 13:20:22;;;;;;;;;;;;;;;16.41;54.24;102228.84;5043996;28;1010;-56
2022/11/13 13:23:09;;;;;;;;;;;;;;;16.25;54.71;102215.81;5057100;28;1124;-60
2022/11/13 13:26:03;;;;;;;;;;;;;;;17.76;51.17;102221.59;5056917;28;1064;-59
2022/11/13 13:28:51;;;;;;;;;;;;;;;16.76;53.71;102214.31;5046303;28;1077;-58
2022/11/13 13:31:47;;;;;;;;;;;;;;;16.45;54.43;102211.91;5056909;28;1905;-60
2022/11/13 13:34:50;;;;;;;;;;;;;;;16.25;54.71;102207.59;5041957;28;1155;-56
2022/11/13 13:37:49;;;;;;;;;;;;;;;17.57;51.43;102219.06;5047595;28;1284;-58
2022/11/13 13:40:37;;;;;;;;;;;;;;;16.68;53.90;102225.66;5053501;28;983;-57
2022/11/13 13:43:54;;;;;;;;;;;;;;;16.36;54.76;102225.97;5041598;28;2498;-58
2022/11/13 13:46:37;;;;;;;;;;;;;;;17.27;52.69;102217.34;5014703;28;1148;-58
2022/11/13 13:49:21;;;;;;;;;;;;;;;17.12;52.49;102213.44;5027426;28;955;-59
2022/11/13 13:52:05;;;;;;;;;;;;;;;16.59;54.20;102224.31;5056627;28;1910;-58
2022/11/13 13:54:49;;;;;;;;;;;;;;;16.36;54.43;102215.00;5056674;28;1286;-59
2022/11/13 13:57:33;;;;;;;;;;;;;;;16.79;53.98;102209.38;5056571;28;1140;-61
2022/11/13 14:00:17;;;;;;;;;;;;;;;17.27;52.49;102202.78;5041523;28;1155;-58
2022/11/13 14:03:02;;;;;;;;;;;;;;;16.62;54.24;102210.13;5038094;28;899;-57
2022/11/13 14:05:46;;;;;;;;;;;;;;;16.34;54.64;102206.19;5056635;28;1179;-57
2022/11/13 14:08:30;;;;;;;;;;;;;;;17.51;52.03;102208.19;5056322;28;1084;-58
2022/11/13 14:11:28;;;;;;;;;;;;;;;17.00;53.05;102199.72;5041381;28;2496;-58
2022/11/13 14:14:22;;;;;;;;;;;;;;;16.52;54.34;102202.50;5060838;28;1099;-59
2022/11/13 14:17:06;;;;;;;;;;;;;;;16.29;54.85;102195.06;5056264;28;1096;-58
2022/11/13 14:19:50;;;;;;;;;;;;;;;17.58;52.18;102193.22;5041103;28;1207;-59
2022/11/13 14:22:34;;;;;;;;;;;;;;;16.86;53.76;102196.38;5056196;28;1088;-59
2022/11/13 14:25:20;;;;;;;;;;;;;;;16.49;54.63;102204.88;5055902;28;1025;-58
2022/11/13 14:28:04;;;;;;;;;;;;;;;16.24;54.93;102195.78;5040906;28;1117;-57
2022/11/13 14:30:56;;;;;;;;;;;;;;;16.12;55.33;102200.41;5040652;28;1906;-58